Flight Track Log - Related Links

Times and Time Zones

All times are in EST time to prevent confusion due to time zone crossing. See the N173DS flight status page for this flight to view local times or setup timezone preferences in your user account.

Time Position Orientation Groundspeed Altitude Reporting Facility
EST Latitude Longitude Course Direction KTS MPH feet Rate Location/Type
Fri 10:49:16 AM 40.9494 -81.4386 49° Northeast 179 206 2,900  Level Cleveland Center
Fri 10:50:18 AM 40.9847 -81.3842 49° Northeast 240 276 5,500 2,537 Climbing Cleveland Center
Fri 10:51:19 AM 40.9222 -81.3350 149° Southeast 288 331 8,100 2,754 Climbing Cleveland Center
Fri 10:52:20 AM 40.8336 -81.3494 187° South 314 361 11,100 2,585 Climbing Cleveland Center
Fri 10:53:22 AM 40.7325 -81.3472 179° South 354 407 13,400 2,732 Climbing Cleveland Center
Fri 10:54:23 AM 40.6225 -81.3503 181° South 383 441 16,700 2,164 Climbing Cleveland Center
Fri 10:55:24 AM 40.4908 -81.3525 181° South 447 514 17,800 1,707 Climbing Cleveland Center
Fri 10:56:26 AM 40.3581 -81.3553 181° South 476 548 20,200 2,754 Climbing Cleveland Center
Fri 10:57:26 AM 40.2292 -81.3592 181° South 465 535 23,400 2,727 Climbing Indianapolis Center
Fri 10:58:27 AM 40.0997 -81.3614 181° South 461 531 25,700 2,146 Climbing Indianapolis Center
Fri 10:59:29 AM 39.9556 -81.3650 181° South 471 542 27,800 1,707 Climbing Indianapolis Center
Fri 11:00:30 AM 39.8267 -81.3664 180° South 487 560 29,200 1,902 Climbing Indianapolis Center
Fri 11:01:32 AM 39.6644 -81.3700 181° South 485 558 31,700 2,244 Climbing Indianapolis Center
Fri 11:02:33 AM 39.5322 -81.3719 181° South 476 548 33,800 2,098 Climbing Indianapolis Center
Fri 11:03:35 AM 39.4058 -81.3744 181° South 456 525 36,000 1,756 Climbing Indianapolis Center
Fri 11:04:36 AM 39.2853 -81.3703 178° South 436 502 37,400 1,180 Climbing Indianapolis Center
Fri 11:05:37 AM 39.1672 -81.3672 179° South 424 488 38,400 829 Climbing Indianapolis Center
Fri 11:06:39 AM 39.0503 -81.3636 179° South 420 483 39,100 732 Climbing Indianapolis Center
Fri 11:07:40 AM 38.9317 -81.3611 179° South 422 486 39,900 439 Climbing Indianapolis Center
Fri 11:08:42 AM 38.8117 -81.3572 179° South 424 488 40,000 49 Climbing Indianapolis Center
Fri 11:09:43 AM 38.6844 -81.3542 179° South 440 506 40,000  Level Indianapolis Center
Fri 11:10:45 AM 38.5542 -81.3519 179° South 454 522 40,000  Level Indianapolis Center
Fri 11:11:46 AM 38.4244 -81.3481 179° South 459 528 40,000  Level Indianapolis Center
Fri 11:12:47 AM 38.2958 -81.3447 179° South 460 529 40,000  Level Indianapolis Center
Fri 11:13:49 AM 38.1669 -81.3419 179° South 461 531 40,000  Level Indianapolis Center
Fri 11:14:50 AM 38.0375 -81.3378 179° South 463 533 40,000  Level Indianapolis Center
Fri 11:15:52 AM 37.9111 -81.3339 179° South 456 525 40,000  Level Indianapolis Center
Fri 11:16:53 AM 37.7683 -81.3319 179° South 445 512 40,000  Level Indianapolis Center
Fri 11:17:54 AM 37.6458 -81.3281 179° South 446 513 40,000  Level Indianapolis Center
Fri 11:18:56 AM 37.5225 -81.3253 179° South 450 518 40,000  Level Indianapolis Center
Fri 11:19:57 AM 37.3750 -81.3225 179° South 453 521 40,000  Level Indianapolis Center
Fri 11:20:59 AM 37.2650 -81.3181 178° South 455 524 40,000  Level Indianapolis Center
Fri 11:22:00 AM 37.1167 -81.3153 179° South 454 522 40,000  Level Indianapolis Center
Fri 11:23:01 AM 37.0039 -81.3125 179° South 452 520 40,000  Level Indianapolis Center
Fri 11:24:03 AM 36.8772 -81.3089 179° South 459 528 40,000  Level Indianapolis Center
Fri 11:25:04 AM 36.7278 -81.3056 179° South 459 528 40,000  Level Indianapolis Center
Fri 11:26:06 AM 36.6050 -81.3019 179° South 455 524 40,000  Level Indianapolis Center
Fri 11:27:07 AM 36.4783 -81.2994 179° South 452 520 40,000  Level Indianapolis Center
Fri 11:28:15 AM 36.3425 -81.2961 179° South 458 527 40,000  Level Atlanta Center
Fri 11:29:15 AM 36.2194 -81.2953 180° South 458 527 40,000  Level Atlanta Center
Fri 11:30:15 AM 36.0964 -81.2917 179° South 458 527 40,000  Level Atlanta Center
Fri 11:31:15 AM 35.9733 -81.2883 179° South 448 516 40,000  Level Atlanta Center
Fri 11:32:15 AM 35.8542 -81.2872 180° South 441 507 40,000  Level Atlanta Center
Fri 11:33:15 AM 35.7292 -81.2836 179° South 441 507 40,000  Level Atlanta Center
Fri 11:34:15 AM 35.6081 -81.2828 180° South 441 507 40,000  Level Atlanta Center
Fri 11:35:15 AM 35.4764 -81.2769 178° South 441 507 40,000  Level Atlanta Center
Fri 11:36:15 AM 35.3556 -81.2758 180° South 441 507 40,000  Level Atlanta Center
Fri 11:37:15 AM 35.2364 -81.2722 179° South 436 502 40,000  Level Atlanta Center
Fri 11:38:15 AM 35.1194 -81.2711 180° South 431 496 40,000  Level Atlanta Center
Fri 11:39:15 AM 35.0025 -81.2672 178° South 426 490 40,000  Level Atlanta Center
Fri 11:41:25 AM 34.7625 -81.2600 179° South 434 499 40,000  Level Jacksonville Center
Fri 11:42:25 AM 34.6478 -81.2622 181° South 424 488 40,000  Level Jacksonville Center
Fri 11:43:25 AM 34.5311 -81.2594 179° South 419 482 40,000  Level Jacksonville Center
Fri 11:44:25 AM 34.4161 -81.2539 178° South 419 482 40,000  Level Jacksonville Center
Fri 11:45:25 AM 34.3036 -81.2561 181° South 419 482 40,000  Level Jacksonville Center
Fri 11:46:25 AM 34.1928 -81.2458 176° South 406 467 40,000  Level Jacksonville Center
Fri 11:47:25 AM 34.0803 -81.2428 179° South 406 467 40,000  Level Jacksonville Center
Fri 11:48:25 AM 33.9675 -81.2400 179° South 406 467 40,000  Level Jacksonville Center
Fri 11:49:25 AM 33.8547 -81.2369 179° South 406 467 40,000  Level Jacksonville Center
Fri 11:50:25 AM 33.7339 -81.2394 181° South 401 461 40,000  Level Jacksonville Center
Fri 11:51:25 AM 33.6189 -81.2364 179° South 401 461 40,000  Level Jacksonville Center
Fri 11:52:25 AM 33.5061 -81.2311 178° South 401 461 40,000  Level Jacksonville Center
Fri 11:53:25 AM 33.3956 -81.2281 179° South 401 461 40,000  Level Jacksonville Center
Fri 11:54:25 AM 33.2828 -81.2278 180° South 401 461 40,000  Level Jacksonville Center
Fri 11:55:25 AM 33.1700 -81.2250 179° South 401 461 40,000  Level Jacksonville Center
Fri 11:56:25 AM 33.0594 -81.2219 179° South 401 461 40,000  Level Jacksonville Center
Fri 11:57:25 AM 32.9486 -81.2192 179° South 401 461 40,000  Level Jacksonville Center
Fri 11:58:25 AM 32.8381 -81.2164 179° South 401 461 40,000  Level Jacksonville Center
Fri 11:59:25 AM 32.7378 -81.2156 180° South 401 461 40,000  Level Jacksonville Center
Fri 12:00:25 PM 32.6292 -81.2128 179° South 396 456 40,000  Level Jacksonville Center
Fri 12:01:25 PM 32.5103 -81.2100 179° South 396 456 40,000  Level Jacksonville Center
Fri 12:02:25 PM 32.4081 -81.2094 180° South 404 465 40,000  Level Jacksonville Center
Fri 12:03:25 PM 32.2994 -81.2064 179° South 404 465 40,000  Level Jacksonville Center
Fri 12:04:25 PM 32.1886 -81.2036 179° South 404 465 40,000  Level Jacksonville Center
Fri 12:05:25 PM 32.0800 -81.1983 178° South 404 465 40,000  Level Jacksonville Center
Fri 12:06:25 PM 31.9694 -81.1956 179° South 404 465 40,000  Level Jacksonville Center
Fri 12:07:25 PM 31.8461 -81.1903 178° South 404 465 40,000  Level Jacksonville Center
Fri 12:08:25 PM 31.7375 -81.1875 179° South 404 465 40,000  Level Jacksonville Center
Fri 12:09:25 PM 31.6394 -81.1844 178° South 404 465 40,000  Level Jacksonville Center
Fri 12:10:25 PM 31.5183 -81.1817 179° South 398 458 40,000  Level Jacksonville Center
Fri 12:11:25 PM 31.4075 -81.1789 179° South 398 458 40,000  Level Jacksonville Center
Fri 12:12:25 PM 31.3092 -81.1733 177° South 398 458 40,000  Level Jacksonville Center
Fri 12:13:25 PM 31.2008 -81.1731 180° South 398 458 40,000  Level Jacksonville Center
Fri 12:14:25 PM 31.0922 -81.1700 179° South 403 464 40,000  Level Jacksonville Center
Fri 12:15:25 PM 30.9814 -81.1625 177° South 403 464 40,000  Level Jacksonville Center
Fri 12:16:25 PM 30.8706 -81.1597 179° South 403 464 40,000  Level Jacksonville Center
Fri 12:17:25 PM 30.7619 -81.1592 180° South 397 457 40,000  Level Jacksonville Center
Fri 12:18:25 PM 30.6514 -81.1517 177° South 397 457 40,000  Level Jacksonville Center
Fri 12:19:25 PM 30.5406 -81.1489 179° South 402 463 40,000 -500 Level Jacksonville Center
Fri 12:20:25 PM 30.4342 -81.1483 180° South 402 463 39,000 -1,650 Descending Jacksonville Center
Fri 12:21:25 PM 30.3256 -81.1456 179° South 402 463 36,700 -1,900 Descending Jacksonville Center
Fri 12:22:25 PM 30.2106 -81.1403 178° South 402 463 35,200 -1,250 Descending Jacksonville Center
Fri 12:23:25 PM 30.0936 -81.1353 178° South 412 474 34,200 -1,250 Descending Jacksonville Center
Fri 12:24:25 PM 29.9767 -81.1350 180° South 417 480 32,700 -1,550 Descending Jacksonville Center
Fri 12:25:25 PM 29.8619 -81.1322 179° South 422 486 31,100 -1,350 Descending Jacksonville Center
Fri 12:26:25 PM 29.7408 -81.1272 178° South 427 491 30,000 -550 Descending Jacksonville Center
Fri 12:27:25 PM 29.6156 -81.1272 180° South 439 505 30,000 -700 Level Jacksonville Center
Fri 12:28:25 PM 29.4903 -81.1222 178° South 444 511 28,600 -1,550 Descending Jacksonville Center
Fri 12:29:25 PM 29.3689 -81.1172 178° South 444 511 26,900 -1,800 Descending Jacksonville Center
Fri 12:30:25 PM 29.2308 -81.0911 171° South 444 511 25,000 -1,455 Descending Jacksonville Center
Fri 12:32:47 PM 28.9553 -80.9669 158° South 454 522 22,000 -891 Descending Miami Center
Fri 12:33:47 PM 28.8483 -80.9203 159° South 437 503 22,000  Level Miami Center
Fri 12:34:47 PM 28.7286 -80.8708 160° South 425 489 22,000 -300 Level Miami Center
Fri 12:35:47 PM 28.6278 -80.8272 159° South 425 489 21,400 -1,450 Descending Miami Center
Fri 12:36:47 PM 28.5203 -80.7831 160° South 425 489 19,100 -2,083 Descending Miami Center
Fri 12:37:48 PM 28.4197 -80.7253 153° Southeast 420 483 17,200 -1,587 Descending Miami Center
Fri 12:38:48 PM 28.3433 -80.6142 128° Southeast 399 459 15,900 -1,714 Descending Miami Center
Fri 12:39:47 PM 28.2836 -80.5039 122° Southeast 404 465 13,800 -2,420 Descending Miami Center
Fri 12:40:47 PM 28.2150 -80.4097 130° Southeast 404 465 11,100 -1,950 Descending Miami Center
Fri 12:41:47 PM 28.1178 -80.3689 160° South 372 428 9,900 -750 Descending Miami Center
Fri 12:42:47 PM 28.0228 -80.3331 162° South 366 421 9,600 -1,150 Descending Miami Center
Fri 12:43:47 PM 27.9381 -80.3022 162° South 344 396 7,600 -2,050 Descending Miami Center
Fri 12:44:47 PM 27.8592 -80.2764 164° South 331 381 5,500 -1,289 Descending Miami Center
Fri 12:45:48 PM 27.7950 -80.2511 161° South 276 318 5,000 -955 Descending Miami Center
Fri 12:46:59 PM 27.7183 -80.2278 165° South 265 305 3,400 -1,364 Descending Miami Center
Fri 12:48:00 PM 27.6333 -80.2042 166° South 265 305 2,000 -694 Descending Miami Center
Fri 12:49:00 PM 27.5767 -80.2236 197° South 225 259 2,000  Level Miami Center
Fri 12:49:59 PM 27.5919 -80.2825 286° West 165 190 2,000 -303 Level Miami Center
Fri 12:50:59 PM 27.6239 -80.3350 304° West 168 193 1,400 -645 Descending Miami Center
Fri 12:52:00 PM 27.6378 -80.3731 292° West 153 176 700 -600 Descending Miami Center
Fri 12:52:59 PM 27.6475 -80.4014 291° West 133 153 200 -508 Descending Miami Center
Fri 12:54:00 PM 27.6500 -80.4167 192° South  Level FlightAware Approximate

Login

Don't have an account? Register now (free) for customized features, flight alerts, and more!